Time;durP1;ratioP1;P1;durP2;ratioP2;P2;SDS_P1;SDS_P2;PMS_P1;PMS_P2;Temp;Humidity;BMP_temperature;BMP_pressure;BME280_temperature;BME280_humidity;BME280_pressure;Samples;Min_cycle;Max_cycle;Signal;HPM_P1;HPM_P2
2024/01/03 00:00:35;;;;;;;;;;;;;;;10.92;100.00;97697.81;12206822;19;20387;-81
2024/01/03 00:04:36;;;;;;;;;;;;;;;10.90;100.00;97710.25;12258907;19;19903;-85
2024/01/03 00:08:38;;;;;;;;;;;;;;;10.94;100.00;97695.53;12248539;19;19911;-82
2024/01/03 00:12:40;;;;;;;;;;;;;;;10.91;100.00;97707.19;12267937;19;19911;-85
2024/01/03 00:16:42;;;;;;;;;;;;;;;10.76;100.00;97693.69;12234808;19;19906;-83
2024/01/03 00:20:43;;;;;;;;;;;;;;;10.63;100.00;97681.50;12198801;19;19919;-83
2024/01/03 00:24:46;;;;;;;;;;;;;;;10.52;100.00;97688.31;12234569;19;19919;-84
2024/01/03 00:28:49;;;;;;;;;;;;;;;10.43;100.00;97709.41;12263947;19;19943;-83
2024/01/03 00:32:51;;;;;;;;;;;;;;;10.42;100.00;97718.78;12203613;19;19910;-84
2024/01/03 00:37:14;;;;;;;;;;;;;;;10.41;100.00;97726.22;12222427;19;19910;-82
2024/01/03 00:41:16;;;;;;;;;;;;;;;10.44;100.00;97720.13;12220167;19;19911;-85
2024/01/03 00:45:17;;;;;;;;;;;;;;;10.53;100.00;97727.69;12200370;19;19911;-83
2024/01/03 00:49:20;;;;;;;;;;;;;;;10.53;100.00;97727.69;12222016;19;19914;-83
2024/01/03 00:53:23;;;;;;;;;;;;;;;10.69;100.00;97738.16;12226304;19;19911;-83
2024/01/03 00:57:24;;;;;;;;;;;;;;;10.76;100.00;97729.50;12205422;19;19919;-84
2024/01/03 01:01:26;;;;;;;;;;;;;;;10.78;100.00;97743.78;12219387;19;19938;-83
2024/01/03 01:05:28;;;;;;;;;;;;;;;10.75;100.00;97749.09;12215684;19;19907;-83
2024/01/03 01:09:30;;;;;;;;;;;;;;;10.80;100.00;97751.78;12197473;19;19985;-82
2024/01/03 01:13:32;;;;;;;;;;;;;;;10.83;100.00;97760.25;12213876;19;19932;-83
2024/01/03 01:17:33;;;;;;;;;;;;;;;10.74;100.00;97756.53;12213833;19;19911;-82
2024/01/03 01:21:39;;;;;;;;;;;;;;;10.71;100.00;97762.66;12193733;19;19945;-82
2024/01/03 01:25:40;;;;;;;;;;;;;;;10.62;100.00;97765.28;12213593;19;19918;-82
2024/01/03 01:29:42;;;;;;;;;;;;;;;10.62;100.00;97786.47;12187129;19;19934;-81
2024/01/03 01:33:44;;;;;;;;;;;;;;;10.60;100.00;97796.97;12212649;19;19911;-81
2024/01/03 01:37:46;;;;;;;;;;;;;;;10.52;100.00;97800.41;12212596;19;19906;-80
2024/01/03 01:41:48;;;;;;;;;;;;;;;10.43;100.00;97806.56;12188136;19;19950;-83
2024/01/03 01:45:50;;;;;;;;;;;;;;;10.41;100.00;97819.00;12203633;19;19922;-82
2024/01/03 01:49:52;;;;;;;;;;;;;;;10.31;100.00;97817.22;12208332;19;19927;-83
2024/01/03 01:53:55;;;;;;;;;;;;;;;10.33;100.00;97806.75;12189410;19;19921;-82
2024/01/03 01:57:57;;;;;;;;;;;;;;;10.36;100.00;97813.59;12209610;19;19915;-82
2024/01/03 02:01:59;;;;;;;;;;;;;;;10.32;100.00;97805.09;12206189;19;19915;-81
2024/01/03 02:06:01;;;;;;;;;;;;;;;10.29;100.00;97811.19;12189240;19;19927;-81
2024/01/03 02:10:03;;;;;;;;;;;;;;;10.33;100.00;97801.22;12220204;19;19907;-82
2024/01/03 02:14:05;;;;;;;;;;;;;;;10.26;100.00;97798.84;12216335;19;19919;-82
2024/01/03 02:18:07;;;;;;;;;;;;;;;10.23;100.00;97804.06;12183584;19;20035;-83
2024/01/03 02:22:10;;;;;;;;;;;;;;;10.18;100.00;97809.69;12206572;19;19919;-82
2024/01/03 02:26:12;;;;;;;;;;;;;;;10.14;100.00;97814.13;12203986;19;19918;-81
2024/01/03 02:30:29;;;;;;;;;;;;;;;9.97;100.00;97804.44;12183062;19;19920;-81
2024/01/03 02:34:31;;;;;;;;;;;;;;;9.85;100.00;97811.47;12206765;19;19910;-81
2024/01/03 02:38:33;;;;;;;;;;;;;;;9.81;100.00;97825.81;12208639;19;19915;-82
2024/01/03 02:42:34;;;;;;;;;;;;;;;9.86;100.00;97819.44;12187384;19;19910;-82
2024/01/03 02:46:36;;;;;;;;;;;;;;;10.03;100.00;97811.50;12169962;19;19924;-83
2024/01/03 02:50:43;;;;;;;;;;;;;;;10.14;100.00;97806.69;12209396;19;19932;-82
2024/01/03 02:54:45;;;;;;;;;;;;;;;10.23;100.00;97813.19;12183053;19;19906;-84
2024/01/03 02:58:47;;;;;;;;;;;;;;;10.30;100.00;97814.78;12203454;19;19955;-83
2024/01/03 03:02:48;;;;;;;;;;;;;;;10.38;100.00;97822.34;12186603;19;19918;-83
2024/01/03 03:06:50;;;;;;;;;;;;;;;10.27;100.00;97807.94;12207322;19;19918;-82
2024/01/03 03:10:52;;;;;;;;;;;;;;;10.12;100.00;97813.63;12195917;19;19932;-81
2024/01/03 03:14:54;;;;;;;;;;;;;;;9.93;100.00;97814.38;12188098;19;19911;-80
2024/01/03 03:18:55;;;;;;;;;;;;;;;9.80;100.00;97820.59;12203698;19;19918;-81
2024/01/03 03:22:57;;;;;;;;;;;;;;;9.77;100.00;97844.00;12204148;19;19914;-81
2024/01/03 03:26:59;;;;;;;;;;;;;;;9.72;100.00;97832.25;12179463;19;19935;-83
2024/01/03 03:31:02;;;;;;;;;;;;;;;9.71;100.00;97839.69;12220934;19;19927;-82
2024/01/03 03:35:04;;;;;;;;;;;;;;;9.67;100.00;97832.31;12226681;19;19922;-81
2024/01/03 03:39:07;;;;;;;;;;;;;;;9.63;100.00;97836.75;12196922;19;19967;-82
2024/01/03 03:43:09;;;;;;;;;;;;;;;9.62;100.00;97830.44;12229398;19;19907;-83
2024/01/03 03:47:11;;;;;;;;;;;;;;;9.64;100.00;97832.88;12259336;19;19947;-83
2024/01/03 03:51:12;;;;;;;;;;;;;;;9.69;100.00;97836.41;12208089;19;19907;-82
2024/01/03 03:55:15;;;;;;;;;;;;;;;9.82;100.00;97846.72;12222070;19;19918;-82
2024/01/03 03:59:17;;;;;;;;;;;;;;;9.90;100.00;97828.72;12218180;19;20587;-82
2024/01/03 04:03:18;;;;;;;;;;;;;;;9.97;100.00;97828.38;12202771;19;19990;-82
2024/01/03 04:07:20;;;;;;;;;;;;;;;10.00;100.00;97825.03;12219069;19;19918;-81
2024/01/03 04:11:22;;;;;;;;;;;;;;;9.97;100.00;97836.63;12217267;19;19933;-81
2024/01/03 04:15:24;;;;;;;;;;;;;;;9.95;100.00;97844.38;12193089;19;19923;-82
2024/01/03 04:19:30;;;;;;;;;;;;;;;9.91;100.00;97844.13;12215276;19;19911;-81
2024/01/03 04:23:32;;;;;;;;;;;;;;;9.89;100.00;97846.34;12217399;19;19926;-82
2024/01/03 04:27:35;;;;;;;;;;;;;;;9.73;100.00;97855.91;12197694;19;20004;-83
2024/01/03 04:31:36;;;;;;;;;;;;;;;9.66;100.00;97839.72;12216956;19;19918;-85
2024/01/03 04:35:38;;;;;;;;;;;;;;;9.56;100.00;97856.34;12218357;19;19932;-83
2024/01/03 04:39:40;;;;;;;;;;;;;;;9.56;100.00;97861.84;12193850;19;19910;-82
2024/01/03 04:43:41;;;;;;;;;;;;;;;9.51;100.00;97862.72;12216954;19;19939;-81
2024/01/03 04:47:43;;;;;;;;;;;;;;;9.43;100.00;97868.00;12217816;19;20699;-84
2024/01/03 04:51:45;;;;;;;;;;;;;;;9.48;100.00;97874.28;12215230;19;19907;-81
2024/01/03 04:55:46;;;;;;;;;;;;;;;9.58;100.00;97873.38;12216779;19;19907;-80
2024/01/03 04:59:51;;;;;;;;;;;;;;;9.65;100.00;97864.78;12194024;19;19923;-85
2024/01/03 05:03:53;;;;;;;;;;;;;;;9.73;100.00;97869.66;12213941;19;19968;-82
2024/01/03 05:07:56;;;;;;;;;;;;;;;9.70;100.00;97871.06;12216170;19;19966;-83
2024/01/03 05:11:57;;;;;;;;;;;;;;;9.65;100.00;97854.59;12193387;19;20353;-83
2024/01/03 05:15:59;;;;;;;;;;;;;;;9.65;100.00;97851.03;12212667;19;19914;-81
2024/01/03 05:20:01;;;;;;;;;;;;;;;9.58;100.00;97857.69;12212182;19;19915;-81
2024/01/03 05:24:02;;;;;;;;;;;;;;;9.60;100.00;97857.41;12196965;19;19947;-84
2024/01/03 05:28:04;;;;;;;;;;;;;;;9.62;100.00;97862.63;12215861;19;19918;-83
2024/01/03 05:32:06;;;;;;;;;;;;;;;9.64;100.00;97876.88;12237642;19;20430;-82
2024/01/03 05:36:08;;;;;;;;;;;;;;;9.74;100.00;97876.78;12222762;19;19923;-81
2024/01/03 05:40:10;;;;;;;;;;;;;;;9.84;100.00;97890.41;12243856;19;19948;-83
2024/01/03 05:44:13;;;;;;;;;;;;;;;10.06;100.00;97883.59;12245968;19;19915;-83
2024/01/03 05:48:15;;;;;;;;;;;;;;;10.20;100.00;97885.34;12196769;19;19911;-82
2024/01/03 05:52:17;;;;;;;;;;;;;;;10.22;100.00;97874.81;12212474;19;19950;-81
2024/01/03 05:56:19;;;;;;;;;;;;;;;10.32;100.00;97881.34;12212926;19;19910;-83
2024/01/03 06:00:21;;;;;;;;;;;;;;;10.38;100.00;97885.66;12187028;19;20415;-82
2024/01/03 06:04:23;;;;;;;;;;;;;;;10.33;100.00;97881.06;12212564;19;19918;-81
2024/01/03 06:08:25;;;;;;;;;;;;;;;10.34;100.00;97882.69;12212517;19;20264;-84
2024/01/03 06:12:27;;;;;;;;;;;;;;;10.35;100.00;97886.25;12185267;19;19910;-84
2024/01/03 06:16:29;;;;;;;;;;;;;;;10.39;100.00;97881.81;12212517;19;19998;-82
2024/01/03 06:20:30;;;;;;;;;;;;;;;10.33;100.00;97872.00;12207136;19;19911;-81
2024/01/03 06:24:32;;;;;;;;;;;;;;;10.42;100.00;97881.22;12186797;19;19931;-81
2024/01/03 06:28:34;;;;;;;;;;;;;;;10.45;100.00;97878.69;12206466;19;19972;-80
2024/01/03 06:32:35;;;;;;;;;;;;;;;10.54;100.00;97884.38;12209476;19;19914;-81
2024/01/03 06:36:37;;;;;;;;;;;;;;;10.58;100.00;97882.63;12189283;19;19950;-82
2024/01/03 06:40:39;;;;;;;;;;;;;;;10.60;100.00;97879.59;12211644;19;19914;-83
2024/01/03 06:44:41;;;;;;;;;;;;;;;10.63;100.00;97890.03;12211097;19;19933;-86
2024/01/03 06:48:44;;;;;;;;;;;;;;;10.62;100.00;97882.84;12190038;19;19926;-84
2024/01/03 06:52:46;;;;;;;;;;;;;;;10.67;100.00;97877.28;12217798;19;19925;-85
2024/01/03 06:56:48;;;;;;;;;;;;;;;10.66;100.00;97876.47;12192552;19;19927;-83
2024/01/03 07:00:50;;;;;;;;;;;;;;;10.70;100.00;97876.69;12206688;19;19906;-84
2024/01/03 07:04:51;;;;;;;;;;;;;;;10.72;100.00;97872.53;12217815;19;19910;-84
2024/01/03 07:08:53;;;;;;;;;;;;;;;10.75;100.00;97875.81;12202950;19;19946;-85
2024/01/03 07:12:55;;;;;;;;;;;;;;;10.78;100.00;97865.00;12240185;19;19915;-87
2024/01/03 07:16:57;;;;;;;;;;;;;;;10.74;100.00;97872.25;12272521;19;19907;-84
2024/01/03 07:20:58;;;;;;;;;;;;;;;10.83;100.00;97872.38;12252808;19;19906;-80
2024/01/03 07:25:00;;;;;;;;;;;;;;;10.84;100.00;97869.31;12269181;19;19944;-84
2024/01/03 07:29:02;;;;;;;;;;;;;;;10.81;100.00;97867.16;12230609;19;19922;-84
2024/01/03 07:33:04;;;;;;;;;;;;;;;10.85;100.00;97865.44;12209510;19;19931;-85
2024/01/03 07:37:06;;;;;;;;;;;;;;;10.83;100.00;97861.38;12234540;19;19922;-82
2024/01/03 07:41:07;;;;;;;;;;;;;;;10.87;100.00;97865.97;12261510;19;19981;-86
2024/01/03 07:45:09;;;;;;;;;;;;;;;10.84;100.00;97861.06;12238401;19;19929;-83
2024/01/03 07:49:11;;;;;;;;;;;;;;;10.86;100.00;97858.84;12255657;19;19922;-82
2024/01/03 07:53:13;;;;;;;;;;;;;;;10.95;100.00;97853.47;12247460;19;19945;-84
2024/01/03 07:57:14;;;;;;;;;;;;;;;11.02;100.00;97866.84;12220141;19;19910;-82
2024/01/03 08:01:16;;;;;;;;;;;;;;;10.94;100.00;97860.88;12241748;19;19910;-84
2024/01/03 08:05:18;;;;;;;;;;;;;;;10.89;100.00;97860.97;12240205;19;19915;-86
2024/01/03 08:09:20;;;;;;;;;;;;;;;11.05;100.00;97852.47;12221759;19;19922;-82
2024/01/03 08:13:22;;;;;;;;;;;;;;;11.01;100.00;97838.47;12246202;19;19922;-85
2024/01/03 08:17:23;;;;;;;;;;;;;;;10.98;100.00;97841.84;12246662;19;19917;-83
2024/01/03 08:21:25;;;;;;;;;;;;;;;11.07;100.00;97851.06;12207795;19;19910;-83
2024/01/03 08:25:27;;;;;;;;;;;;;;;11.07;100.00;97853.81;12228838;19;19930;-86
2024/01/03 08:29:30;;;;;;;;;;;;;;;11.14;100.00;97853.41;12217566;19;19922;-85
2024/01/03 08:33:35;;;;;;;;;;;;;;;11.16;100.00;97849.25;12189014;19;20767;-83
2024/01/03 08:37:37;;;;;;;;;;;;;;;11.18;100.00;97857.19;12192942;19;19922;-84
2024/01/03 08:41:39;;;;;;;;;;;;;;;11.18;100.00;97855.28;12218453;19;20008;-84
2024/01/03 08:45:41;;;;;;;;;;;;;;;11.26;100.00;97859.28;12191371;19;19974;-83
2024/01/03 08:49:43;;;;;;;;;;;;;;;11.22;100.00;97861.00;12209781;19;19922;-84
2024/01/03 08:53:45;;;;;;;;;;;;;;;11.21;100.00;97858.53;12195546;19;19918;-83
2024/01/03 08:57:50;;;;;;;;;;;;;;;11.25;100.00;97849.38;12209703;19;19922;-84
2024/01/03 09:01:52;;;;;;;;;;;;;;;11.15;100.00;97877.94;12215203;19;19943;-85
2024/01/03 09:05:54;;;;;;;;;;;;;;;11.24;100.00;97893.78;12196923;19;19910;-84
2024/01/03 09:09:56;;;;;;;;;;;;;;;11.14;100.00;97881.78;12213970;19;19938;-82
2024/01/03 09:13:58;;;;;;;;;;;;;;;11.03;100.00;97891.34;12216434;19;19928;-84
2024/01/03 09:17:59;;;;;;;;;;;;;;;10.88;100.00;97881.38;12193364;19;20290;-85
2024/01/03 09:22:02;;;;;;;;;;;;;;;10.80;100.00;97893.09;12216747;19;19922;-83
2024/01/03 09:26:04;;;;;;;;;;;;;;;10.86;100.00;97896.59;12209647;19;19926;-82
2024/01/03 09:30:06;;;;;;;;;;;;;;;11.04;100.00;97892.19;12185514;19;19922;-82
2024/01/03 09:34:08;;;;;;;;;;;;;;;11.15;100.00;97896.38;12211656;19;20445;-82
2024/01/03 09:38:11;;;;;;;;;;;;;;;11.18;100.00;97893.03;12215017;19;20327;-84
2024/01/03 09:42:14;;;;;;;;;;;;;;;11.26;100.00;97908.91;12195728;19;19919;-83
2024/01/03 09:46:16;;;;;;;;;;;;;;;11.35;100.00;97912.59;12206140;19;19931;-82
2024/01/03 09:50:17;;;;;;;;;;;;;;;11.38;100.00;97919.47;12204374;19;19907;-84
2024/01/03 09:54:19;;;;;;;;;;;;;;;11.32;100.00;97915.97;12186893;19;19922;-84
2024/01/03 09:58:24;;;;;;;;;;;;;;;11.40;100.00;97918.03;12201950;19;19919;-83
2024/01/03 10:02:27;;;;;;;;;;;;;;;11.49;100.00;97918.16;12210616;19;19914;-84
2024/01/03 10:06:29;;;;;;;;;;;;;;;11.42;100.00;97920.47;12186702;19;19921;-84
2024/01/03 10:10:32;;;;;;;;;;;;;;;11.45;100.00;97913.53;12209621;19;19915;-84
2024/01/03 10:14:34;;;;;;;;;;;;;;;11.61;100.00;97912.19;12216446;19;19913;-82
2024/01/03 10:18:36;;;;;;;;;;;;;;;11.84;100.00;97930.53;12186502;19;20280;-81
2024/01/03 10:22:38;;;;;;;;;;;;;;;11.86;100.00;97903.44;12206280;19;21123;-82
2024/01/03 10:26:40;;;;;;;;;;;;;;;11.86;100.00;97919.19;12201811;19;19918;-81
2024/01/03 10:30:42;;;;;;;;;;;;;;;11.76;100.00;97911.91;12177510;19;20012;-81
2024/01/03 10:34:43;;;;;;;;;;;;;;;11.84;100.00;97927.75;12204315;19;19950;-83
2024/01/03 10:38:45;;;;;;;;;;;;;;;12.12;100.00;97922.28;12177923;19;20260;-81
2024/01/03 10:42:49;;;;;;;;;;;;;;;12.29;100.00;97918.94;12203572;19;20346;-83
2024/01/03 10:46:52;;;;;;;;;;;;;;;12.52;96.20;97926.19;12200389;19;19923;-81
2024/01/03 10:50:58;;;;;;;;;;;;;;;12.81;92.91;97924.19;12177819;19;19928;-82
2024/01/03 10:55:04;;;;;;;;;;;;;;;12.97;92.08;97926.31;12199378;19;20508;-85
2024/01/03 10:59:06;;;;;;;;;;;;;;;12.83;92.44;97928.28;12202770;19;19914;-81
2024/01/03 11:03:27;;;;;;;;;;;;;;;12.59;91.71;97947.88;12184097;19;20928;-81
2024/01/03 11:07:37;;;;;;;;;;;;;;;12.55;92.70;97949.59;12208110;19;19990;-82
2024/01/03 11:11:39;;;;;;;;;;;;;;;12.51;94.11;97946.63;12210402;19;19915;-82
2024/01/03 11:15:43;;;;;;;;;;;;;;;12.48;95.03;97940.91;12185190;19;20160;-82
2024/01/03 11:20:04;;;;;;;;;;;;;;;12.52;94.65;97947.44;12199681;19;19914;-81
2024/01/03 11:24:06;;;;;;;;;;;;;;;12.74;93.30;97935.66;12178630;19;19923;-84
2024/01/03 11:28:36;;;;;;;;;;;;;;;12.81;92.00;97933.28;12201105;19;19915;-83
2024/01/03 11:32:38;;;;;;;;;;;;;;;12.99;90.93;97929.56;12196506;19;20010;-83
2024/01/03 11:36:47;;;;;;;;;;;;;;;12.89;90.69;97926.22;12175543;19;19935;-83
2024/01/03 11:40:49;;;;;;;;;;;;;;;12.77;90.29;97927.56;12203674;19;19934;-85
2024/01/03 11:45:04;;;;;;;;;;;;;;;12.77;89.24;97929.53;12184731;19;19907;-83
2024/01/03 11:49:07;;;;;;;;;;;;;;;12.70;88.94;97920.81;12198220;19;19924;-82
2024/01/03 11:53:09;;;;;;;;;;;;;;;12.69;88.02;97914.47;12212311;19;19943;-84
2024/01/03 11:57:11;;;;;;;;;;;;;;;12.73;88.33;97917.44;12188092;19;19917;-82
2024/01/03 12:01:16;;;;;;;;;;;;;;;12.68;87.30;97903.75;12212131;19;19947;-83
2024/01/03 12:05:18;;;;;;;;;;;;;;;12.62;89.35;97918.81;12204224;19;20299;-84
2024/01/03 12:09:19;;;;;;;;;;;;;;;12.54;91.43;97907.34;12177939;19;20273;-83
2024/01/03 12:13:21;;;;;;;;;;;;;;;12.42;92.57;97900.72;12216395;19;19947;-84
2024/01/03 12:17:28;;;;;;;;;;;;;;;12.55;92.97;97899.84;12207075;19;19918;-83
2024/01/03 12:21:31;;;;;;;;;;;;;;;12.98;89.84;97883.69;12186441;19;19987;-84
2024/01/03 12:25:32;;;;;;;;;;;;;;;12.75;91.50;97888.34;12214724;19;19907;-85
2024/01/03 12:29:34;;;;;;;;;;;;;;;12.76;92.67;97881.72;12207670;19;19926;-85
2024/01/03 12:33:36;;;;;;;;;;;;;;;12.74;93.52;97872.91;12191611;19;20023;-84
2024/01/03 12:37:46;;;;;;;;;;;;;;;12.76;93.12;97870.66;12213922;19;19907;-83
2024/01/03 12:41:51;;;;;;;;;;;;;;;12.83;92.31;97877.72;12190036;19;19919;-82
2024/01/03 12:45:53;;;;;;;;;;;;;;;12.69;92.69;97881.31;12213791;19;19925;-81
2024/01/03 12:49:55;;;;;;;;;;;;;;;12.58;93.30;97874.38;12208810;19;20314;-81
2024/01/03 12:53:57;;;;;;;;;;;;;;;12.38;92.88;97866.56;12190152;19;19915;-83
2024/01/03 12:57:59;;;;;;;;;;;;;;;12.47;92.79;97867.47;12215555;19;19922;-81
2024/01/03 13:02:01;;;;;;;;;;;;;;;12.40;92.85;97847.72;12210387;19;20394;-84
2024/01/03 13:06:03;;;;;;;;;;;;;;;12.23;96.18;97857.47;12190845;19;19910;-84
2024/01/03 13:10:06;;;;;;;;;;;;;;;12.08;100.00;97849.50;12213521;19;19923;-84
2024/01/03 13:14:08;;;;;;;;;;;;;;;11.79;100.00;97844.25;12207392;19;19918;-85
2024/01/03 13:18:10;;;;;;;;;;;;;;;11.56;100.00;97846.06;12193783;19;19907;-83
2024/01/03 13:22:12;;;;;;;;;;;;;;;11.27;100.00;97855.38;12218028;19;19915;-86
2024/01/03 13:26:14;;;;;;;;;;;;;;;11.15;100.00;97852.28;12219838;19;19919;-86
2024/01/03 13:30:16;;;;;;;;;;;;;;;11.04;100.00;97853.59;12195393;19;20398;-84
2024/01/03 13:34:24;;;;;;;;;;;;;;;10.84;100.00;97855.53;12264762;19;19940;-84
2024/01/03 13:38:48;;;;;;;;;;;;;;;10.53;100.00;97866.22;12260822;19;19910;-83
2024/01/03 13:42:59;;;;;;;;;;;;;;;10.29;100.00;97860.72;12235901;19;19919;-82
2024/01/03 13:47:02;;;;;;;;;;;;;;;10.13;100.00;97870.28;12221325;19;20235;-81
2024/01/03 13:51:03;;;;;;;;;;;;;;;10.01;100.00;97855.00;12183992;19;19928;-81
2024/01/03 13:55:05;;;;;;;;;;;;;;;9.92;100.00;97837.50;12190428;19;20344;-81
2024/01/03 13:59:08;;;;;;;;;;;;;;;9.95;100.00;97839.66;12196529;19;19924;-81
2024/01/03 14:03:11;;;;;;;;;;;;;;;9.84;100.00;97848.34;12171884;19;20347;-82
2024/01/03 14:07:14;;;;;;;;;;;;;;;9.66;100.00;97856.22;12206218;19;20085;-81
2024/01/03 14:11:18;;;;;;;;;;;;;;;9.64;100.00;97861.22;12198151;19;20291;-81
2024/01/03 14:15:20;;;;;;;;;;;;;;;9.67;100.00;97868.88;12178196;19;20015;-82
2024/01/03 14:19:22;;;;;;;;;;;;;;;9.71;100.00;97855.38;12206674;19;19915;-81
2024/01/03 14:23:24;;;;;;;;;;;;;;;9.60;100.00;97862.91;12205494;19;19914;-82
2024/01/03 14:27:26;;;;;;;;;;;;;;;9.56;100.00;97854.41;12184237;19;19914;-84
2024/01/03 14:31:28;;;;;;;;;;;;;;;9.57;100.00;97857.97;12205497;19;19927;-81
2024/01/03 14:35:31;;;;;;;;;;;;;;;9.56;100.00;97848.09;12213604;19;19911;-81
2024/01/03 14:39:40;;;;;;;;;;;;;;;9.57;100.00;97842.28;12190976;19;20556;-82
2024/01/03 14:43:44;;;;;;;;;;;;;;;9.62;100.00;97835.94;12225690;19;19925;-82
2024/01/03 14:47:48;;;;;;;;;;;;;;;9.54;100.00;97834.63;12229274;19;19919;-81
2024/01/03 14:51:51;;;;;;;;;;;;;;;9.53;100.00;97827.50;12256617;19;19907;-81
2024/01/03 14:55:56;;;;;;;;;;;;;;;9.51;100.00;97824.22;12258398;19;19915;-82
2024/01/03 14:59:58;;;;;;;;;;;;;;;9.54;100.00;97820.06;12220317;19;19951;-83
2024/01/03 15:03:59;;;;;;;;;;;;;;;9.54;100.00;97823.63;12187417;19;19986;-82
2024/01/03 15:08:01;;;;;;;;;;;;;;;9.58;100.00;97821.97;12195473;19;19910;-82
2024/01/03 15:12:05;;;;;;;;;;;;;;;9.56;100.00;97807.69;12179166;19;19915;-81
2024/01/03 15:16:07;;;;;;;;;;;;;;;9.58;100.00;97808.22;12197194;19;19911;-82
2024/01/03 15:20:11;;;;;;;;;;;;;;;9.58;100.00;97791.72;12189748;19;19915;-82
2024/01/03 15:24:16;;;;;;;;;;;;;;;9.56;100.00;97776.63;12176140;19;19950;-83
2024/01/03 15:28:19;;;;;;;;;;;;;;;9.64;100.00;97775.13;12206223;19;20025;-82
2024/01/03 15:32:21;;;;;;;;;;;;;;;9.72;100.00;97755.25;12207515;19;19911;-80
2024/01/03 15:36:23;;;;;;;;;;;;;;;9.71;100.00;97737.91;12195340;19;19918;-80
2024/01/03 15:40:24;;;;;;;;;;;;;;;9.66;100.00;97742.66;12227242;19;19907;-82
2024/01/03 15:44:26;;;;;;;;;;;;;;;9.59;100.00;97765.84;12214172;19;20372;-81
2024/01/03 15:48:28;;;;;;;;;;;;;;;9.44;100.00;97784.47;12189885;19;19939;-82
2024/01/03 15:52:30;;;;;;;;;;;;;;;9.29;100.00;97801.94;12212773;19;20481;-81
2024/01/03 15:56:32;;;;;;;;;;;;;;;9.23;100.00;97776.44;12212307;19;19950;-80
2024/01/03 16:00:36;;;;;;;;;;;;;;;9.29;100.00;97774.44;12187266;19;19914;-81
2024/01/03 16:04:39;;;;;;;;;;;;;;;9.39;100.00;97755.06;12209102;19;19911;-81
2024/01/03 16:08:40;;;;;;;;;;;;;;;9.41;100.00;97757.56;12204428;19;19910;-81
2024/01/03 16:12:42;;;;;;;;;;;;;;;9.47;100.00;97748.94;12187963;19;19914;-82
2024/01/03 16:16:44;;;;;;;;;;;;;;;9.49;100.00;97737.66;12206128;19;19911;-80
2024/01/03 16:20:45;;;;;;;;;;;;;;;9.50;100.00;97745.59;12188099;19;19975;-80
2024/01/03 16:24:47;;;;;;;;;;;;;;;9.48;100.00;97753.31;12207138;19;19921;-78
2024/01/03 16:28:49;;;;;;;;;;;;;;;9.47;100.00;97750.88;12205048;19;19932;-81
2024/01/03 16:32:50;;;;;;;;;;;;;;;9.45;100.00;97723.66;12188047;19;19925;-81
2024/01/03 16:36:53;;;;;;;;;;;;;;;9.38;100.00;97730.66;12209638;19;19911;-80
2024/01/03 16:40:58;;;;;;;;;;;;;;;9.32;100.00;97724.38;12205936;19;20302;-79
2024/01/03 16:44:59;;;;;;;;;;;;;;;9.13;100.00;97736.13;12182422;19;19922;-81
2024/01/03 16:49:01;;;;;;;;;;;;;;;8.91;100.00;97722.06;12201655;19;19915;-81
2024/01/03 16:53:05;;;;;;;;;;;;;;;8.71;100.00;97712.09;12205810;19;19918;-78
2024/01/03 16:57:07;;;;;;;;;;;;;;;8.65;100.00;97725.03;12175344;19;19962;-81
2024/01/03 17:01:09;;;;;;;;;;;;;;;8.72;100.00;97718.44;12200661;19;19911;-81
2024/01/03 17:05:11;;;;;;;;;;;;;;;8.72;100.00;97718.44;12204887;19;19913;-81
2024/01/03 17:09:20;;;;;;;;;;;;;;;8.81;100.00;97713.94;12178872;19;20520;-81
2024/01/03 17:13:25;;;;;;;;;;;;;;;8.94;100.00;97723.44;12202435;19;19934;-81
2024/01/03 17:17:27;;;;;;;;;;;;;;;9.02;100.00;97717.31;12204079;19;19907;-81
2024/01/03 17:21:31;;;;;;;;;;;;;;;9.13;100.00;97722.41;12180441;19;20319;-81
2024/01/03 17:25:34;;;;;;;;;;;;;;;9.24;100.00;97717.59;12206805;19;20584;-82
2024/01/03 17:29:38;;;;;;;;;;;;;;;9.31;100.00;97698.00;12204477;19;19921;-81
2024/01/03 17:33:40;;;;;;;;;;;;;;;9.41;100.00;97689.66;12180668;19;19914;-82
2024/01/03 17:38:13;;;;;;;;;;;;;;;9.49;100.00;97686.25;12201637;19;19914;-81
2024/01/03 17:42:18;;;;;;;;;;;;;;;9.58;100.00;97676.22;12177038;19;19970;-81
2024/01/03 17:46:39;;;;;;;;;;;;;;;9.67;100.00;97654.38;12198985;19;19919;-81
2024/01/03 17:50:42;;;;;;;;;;;;;;;9.66;100.00;97649.16;12197825;19;19918;-81
2024/01/03 17:54:44;;;;;;;;;;;;;;;9.74;100.00;97632.81;12175654;19;20364;-81
2024/01/03 17:58:47;;;;;;;;;;;;;;;9.76;100.00;97624.28;12194087;19;19923;-81
2024/01/03 18:02:49;;;;;;;;;;;;;;;9.75;100.00;97620.69;12178086;19;19983;-82
2024/01/03 18:06:51;;;;;;;;;;;;;;;9.76;100.00;97627.84;12199139;19;19982;-79
2024/01/03 18:10:52;;;;;;;;;;;;;;;9.67;100.00;97615.06;12201381;19;20312;-79
2024/01/03 18:14:54;;;;;;;;;;;;;;;9.63;100.00;97617.56;12179276;19;19914;-81
2024/01/03 18:18:56;;;;;;;;;;;;;;;9.61;100.00;97613.50;12199868;19;19925;-81
2024/01/03 18:22:59;;;;;;;;;;;;;;;9.52;100.00;97589.44;12198078;19;20228;-84
2024/01/03 18:27:00;;;;;;;;;;;;;;;9.52;100.00;97599.63;12179296;19;19914;-82
2024/01/03 18:31:03;;;;;;;;;;;;;;;9.51;100.00;97603.47;12198398;19;19932;-79
2024/01/03 18:35:06;;;;;;;;;;;;;;;9.45;100.00;97616.47;12198677;19;19910;-79
2024/01/03 18:39:11;;;;;;;;;;;;;;;9.43;100.00;97678.34;12178227;19;20259;-80
2024/01/03 18:43:13;;;;;;;;;;;;;;;9.27;100.00;97721.69;12200273;19;19907;-82
2024/01/03 18:47:15;;;;;;;;;;;;;;;9.16;100.00;97743.00;12202680;19;19907;-82
2024/01/03 18:51:16;;;;;;;;;;;;;;;8.95;100.00;97716.81;12177299;19;19940;-81
2024/01/03 18:55:19;;;;;;;;;;;;;;;8.73;100.00;97720.06;12203452;19;19918;-82
2024/01/03 18:59:21;;;;;;;;;;;;;;;8.57;100.00;97728.44;12208967;19;19927;-82
2024/01/03 19:03:23;;;;;;;;;;;;;;;8.50;100.00;97740.84;12195230;19;20338;-82
2024/01/03 19:07:25;;;;;;;;;;;;;;;8.44;100.00;97759.28;12215385;19;19947;-83
2024/01/03 19:11:26;;;;;;;;;;;;;;;8.44;100.00;97773.81;12217500;19;19910;-84
2024/01/03 19:15:28;;;;;;;;;;;;;;;8.51;100.00;97772.69;12194830;19;19950;-83
2024/01/03 19:19:31;;;;;;;;;;;;;;;8.48;100.00;97784.22;12216029;19;19915;-85
2024/01/03 19:23:33;;;;;;;;;;;;;;;8.53;100.00;97787.75;12217894;19;19919;-83
2024/01/03 19:27:35;;;;;;;;;;;;;;;8.56;100.00;97791.84;12198741;19;19918;-84
2024/01/03 19:31:36;;;;;;;;;;;;;;;8.52;100.00;97797.09;12214023;19;19925;-84
2024/01/03 19:35:38;;;;;;;;;;;;;;;8.56;100.00;97809.13;12221254;19;19918;-86
2024/01/03 19:39:40;;;;;;;;;;;;;;;8.50;100.00;97804.78;12191027;19;19919;-83
2024/01/03 19:43:43;;;;;;;;;;;;;;;8.50;100.00;97829.50;12223083;19;19931;-86
2024/01/03 19:47:46;;;;;;;;;;;;;;;8.42;100.00;97833.69;12219943;19;19922;-84
2024/01/03 19:51:48;;;;;;;;;;;;;;;8.48;100.00;97839.97;12196892;19;19915;-87
2024/01/03 19:55:53;;;;;;;;;;;;;;;8.55;100.00;97840.44;12217856;19;19978;-87
2024/01/03 19:59:55;;;;;;;;;;;;;;;8.52;100.00;97846.50;12211913;19;19926;-85
2024/01/03 20:03:57;;;;;;;;;;;;;;;8.56;100.00;97852.25;12238451;19;19931;-84
2024/01/03 20:08:00;;;;;;;;;;;;;;;8.55;100.00;97856.91;12225948;19;20337;-84
2024/01/03 20:12:03;;;;;;;;;;;;;;;8.58;100.00;97855.53;12198774;19;19923;-82
2024/01/03 20:16:05;;;;;;;;;;;;;;;8.59;100.00;97865.41;12221120;19;19997;-86
2024/01/03 20:20:08;;;;;;;;;;;;;;;8.57;100.00;97851.97;12216211;19;19914;-84
2024/01/03 20:24:10;;;;;;;;;;;;;;;8.55;100.00;97862.41;12182398;19;20745;-85
2024/01/03 20:28:11;;;;;;;;;;;;;;;8.53;100.00;97874.78;12219101;19;20312;-83
2024/01/03 20:32:19;;;;;;;;;;;;;;;8.55;100.00;97870.66;12218573;19;19907;-83
2024/01/03 20:36:26;;;;;;;;;;;;;;;8.55;100.00;97867.91;12194054;19;19970;-85
2024/01/03 20:40:40;;;;;;;;;;;;;;;8.54;100.00;97882.75;12214104;19;19911;-83